createdAt,value
2019-03-13T00:01:24.826Z,-1.60
2019-03-13T00:03:01.107Z,-1.60
2019-03-13T00:04:37.432Z,-1.60
2019-03-13T00:06:14.584Z,-1.60
2019-03-13T00:07:50.740Z,-1.60
2019-03-13T00:09:28.384Z,-1.70
2019-03-13T00:11:04.676Z,-1.60
2019-03-13T00:12:40.939Z,-1.60
2019-03-13T00:14:17.385Z,-1.60
2019-03-13T00:15:54.306Z,-1.60
2019-03-13T00:17:30.633Z,-1.60
2019-03-13T00:19:07.230Z,-1.50
2019-03-13T00:20:43.361Z,-1.50
2019-03-13T00:22:19.745Z,-1.50
2019-03-13T00:23:57.372Z,-1.50
2019-03-13T00:25:33.713Z,-1.60
2019-03-13T00:27:10.169Z,-1.50
2019-03-13T00:28:46.497Z,-1.60
2019-03-13T00:30:34.447Z,-1.50
2019-03-13T00:32:11.170Z,-1.50
2019-03-13T00:33:47.414Z,-1.50
2019-03-13T00:35:23.757Z,-1.50
2019-03-13T00:37:00.056Z,-1.50
2019-03-13T00:38:36.351Z,-1.50
2019-03-13T00:40:13.631Z,-1.50
2019-03-13T00:41:49.887Z,-1.50
2019-03-13T00:43:26.091Z,-1.50
2019-03-13T00:45:02.419Z,-1.60
2019-03-13T00:46:39.859Z,-1.60
2019-03-13T00:48:16.205Z,-1.60
2019-03-13T00:49:52.417Z,-1.60
2019-03-13T00:51:28.770Z,-1.60
2019-03-13T00:53:04.943Z,-1.70
2019-03-13T00:54:41.277Z,-1.60
2019-03-13T00:56:17.490Z,-1.70
2019-03-13T00:57:53.878Z,-1.70
2019-03-13T00:59:30.323Z,-1.70
2019-03-13T01:01:18.214Z,-1.70
2019-03-13T01:02:55.475Z,-1.70
2019-03-13T01:04:36.338Z,-1.70
2019-03-13T01:06:20.459Z,-1.70
2019-03-13T01:07:56.791Z,-1.70
2019-03-13T01:09:32.941Z,-1.70
2019-03-13T01:11:09.149Z,-1.70
2019-03-13T01:12:45.402Z,-1.70
2019-03-13T01:14:21.578Z,-1.70
2019-03-13T01:15:57.644Z,-1.70
2019-03-13T01:17:34.058Z,-1.70
2019-03-13T01:19:12.847Z,-1.70
2019-03-13T01:20:51.759Z,-1.70
2019-03-13T01:22:28.365Z,-1.70
2019-03-13T01:24:04.705Z,-1.70
2019-03-13T01:25:41.047Z,-1.70
2019-03-13T01:27:17.361Z,-1.70
2019-03-13T01:28:53.229Z,-1.70
2019-03-13T01:30:30.948Z,-1.70
2019-03-13T01:32:20.387Z,-1.80
2019-03-13T01:33:59.357Z,-1.70
2019-03-13T01:35:37.076Z,-1.70
2019-03-13T01:37:13.228Z,-1.70
2019-03-13T01:38:49.404Z,-1.70
2019-03-13T01:40:26.836Z,-1.70
2019-03-13T01:42:03.011Z,-1.70
2019-03-13T01:43:39.091Z,-1.70
2019-03-13T01:45:18.057Z,-1.70
2019-03-13T01:46:54.292Z,-1.70
2019-03-13T01:48:30.513Z,-1.70
2019-03-13T01:50:14.081Z,-1.70
2019-03-13T01:51:50.225Z,-1.70
2019-03-13T01:53:26.334Z,-1.70
2019-03-13T01:55:02.488Z,-1.70
2019-03-13T01:56:38.664Z,-1.70
2019-03-13T01:58:14.845Z,-1.70
2019-03-13T01:59:51.015Z,-1.70
2019-03-13T02:01:27.102Z,-1.70
2019-03-13T02:03:03.278Z,-1.70
2019-03-13T02:04:39.453Z,-1.70
2019-03-13T02:06:15.728Z,-1.70
2019-03-13T02:07:51.675Z,-1.70
2019-03-13T02:09:27.791Z,-1.70
2019-03-13T02:11:04.002Z,-1.70
2019-03-13T02:12:40.303Z,-1.70
2019-03-13T02:14:16.619Z,-1.70
2019-03-13T02:15:52.952Z,-1.80
2019-03-13T02:17:29.169Z,-1.80
2019-03-13T02:19:05.390Z,-1.70
2019-03-13T02:20:41.466Z,-1.70
2019-03-13T02:22:17.782Z,-1.80
2019-03-13T02:23:53.953Z,-1.70
2019-03-13T02:25:31.323Z,-1.70
2019-03-13T02:27:07.390Z,-1.70
2019-03-13T02:28:43.505Z,-1.70
2019-03-13T02:30:24.614Z,-1.80
2019-03-13T02:32:00.661Z,-1.80
2019-03-13T02:33:36.961Z,-1.80
2019-03-13T02:35:13.317Z,-1.70
2019-03-13T02:36:49.519Z,-1.80
2019-03-13T02:38:25.668Z,-1.70
2019-03-13T02:40:01.845Z,-1.70
2019-03-13T02:41:38.098Z,-1.70
2019-03-13T02:43:14.242Z,-1.70
2019-03-13T02:44:50.417Z,-1.70
2019-03-13T02:46:26.659Z,-1.60
2019-03-13T02:48:04.025Z,-1.60
2019-03-13T02:49:40.173Z,-1.60
2019-03-13T02:51:16.316Z,-1.50
2019-03-13T02:52:52.601Z,-1.50
2019-03-13T02:54:28.689Z,-1.50
2019-03-13T02:56:04.903Z,-1.50
2019-03-13T02:57:41.090Z,-1.50
2019-03-13T02:59:17.157Z,-1.40
2019-03-13T03:00:58.812Z,-1.40
2019-03-13T03:02:36.605Z,-1.40
2019-03-13T03:04:12.824Z,-1.40
2019-03-13T03:05:48.978Z,-1.40
2019-03-13T03:07:25.379Z,-1.40
2019-03-13T03:09:13.265Z,-1.40
2019-03-13T03:10:49.414Z,-1.40
2019-03-13T03:12:25.589Z,-1.30
2019-03-13T03:14:01.689Z,-1.30
2019-03-13T03:15:37.842Z,-1.40
2019-03-13T03:17:14.150Z,-1.30
2019-03-13T03:18:50.330Z,-1.30
2019-03-13T03:20:26.594Z,-1.30
2019-03-13T03:22:02.810Z,-1.30
2019-03-13T03:23:38.977Z,-1.30
2019-03-13T03:25:17.914Z,-1.30
2019-03-13T03:26:54.165Z,-1.30
2019-03-13T03:28:30.321Z,-1.20
2019-03-13T03:30:22.343Z,-1.30
2019-03-13T03:31:58.602Z,-1.20
2019-03-13T03:33:36.130Z,-1.20
2019-03-13T03:35:12.330Z,-1.20
2019-03-13T03:36:48.473Z,-1.20
2019-03-13T03:38:24.608Z,-1.20
2019-03-13T03:40:00.766Z,-1.20
2019-03-13T03:41:36.894Z,-1.20
2019-03-13T03:43:12.962Z,-1.30
2019-03-13T03:44:49.206Z,-1.30
2019-03-13T03:46:25.522Z,-1.20
2019-03-13T03:48:01.588Z,-1.20
2019-03-13T03:49:37.756Z,-1.30
2019-03-13T03:51:14.025Z,-1.20
2019-03-13T03:52:49.979Z,-1.30
2019-03-13T03:54:26.054Z,-1.30
2019-03-13T03:56:02.312Z,-1.20
2019-03-13T03:57:38.534Z,-1.20
2019-03-13T03:59:14.949Z,-1.20
2019-03-13T04:00:51.191Z,-1.10
2019-03-13T04:02:27.330Z,-1.10
2019-03-13T04:04:03.470Z,-1.10
2019-03-13T04:05:39.712Z,-1.10
2019-03-13T04:07:16.221Z,-1.10
2019-03-13T04:08:52.367Z,-1.00
2019-03-13T04:10:28.482Z,-1.00
2019-03-13T04:12:04.801Z,-1.00
2019-03-13T04:13:44.409Z,-1.00
2019-03-13T04:15:19.012Z,-0.90
2019-03-13T04:16:55.314Z,-0.90
2019-03-13T04:18:31.456Z,-0.80
2019-03-13T04:20:16.822Z,-0.90
2019-03-13T04:21:53.035Z,-0.80
2019-03-13T04:23:29.270Z,-0.80
2019-03-13T04:25:27.596Z,-0.80
2019-03-13T04:27:03.938Z,-0.80
2019-03-13T04:28:39.958Z,-0.80
2019-03-13T04:30:16.213Z,-0.70
2019-03-13T04:31:52.150Z,-0.70
2019-03-13T04:33:28.592Z,-0.70
2019-03-13T04:35:05.829Z,-0.70
2019-03-13T04:36:42.069Z,-0.70
2019-03-13T04:38:19.380Z,-0.70
2019-03-13T04:39:55.364Z,-0.70
2019-03-13T04:41:31.450Z,-0.60
2019-03-13T04:43:07.768Z,-0.60
2019-03-13T04:44:43.837Z,-0.60
2019-03-13T04:46:19.981Z,-0.60
2019-03-13T04:47:56.218Z,-0.60
2019-03-13T04:49:32.360Z,-0.60
2019-03-13T04:51:08.438Z,-0.60
2019-03-13T04:52:44.749Z,-0.50
2019-03-13T04:54:20.896Z,-0.50
2019-03-13T04:55:57.096Z,-0.50
2019-03-13T04:57:33.279Z,-0.50
2019-03-13T04:59:09.288Z,-0.50
2019-03-13T05:00:45.541Z,-0.40
2019-03-13T05:02:21.690Z,-0.40
2019-03-13T05:03:57.939Z,-0.40
2019-03-13T05:05:52.981Z,-0.40
2019-03-13T05:07:29.130Z,-0.30
2019-03-13T05:09:06.956Z,-0.30
2019-03-13T05:10:43.302Z,-0.30
2019-03-13T05:12:19.401Z,-0.30
2019-03-13T05:13:55.473Z,-0.20
2019-03-13T05:15:31.627Z,-0.20
2019-03-13T05:17:07.765Z,-0.30
2019-03-13T05:18:43.773Z,-0.20
2019-03-13T05:20:20.023Z,-0.30
2019-03-13T05:21:56.236Z,-0.30
2019-03-13T05:23:32.376Z,-0.20
2019-03-13T05:25:08.886Z,-0.30
2019-03-13T05:26:45.036Z,-0.20
2019-03-13T05:28:21.212Z,-0.20
2019-03-13T05:29:57.245Z,-0.10
2019-03-13T05:31:33.488Z,-0.10
2019-03-13T05:33:09.460Z,-0.10
2019-03-13T05:34:46.757Z,-0.10
2019-03-13T05:36:22.878Z,-0.10
2019-03-13T05:37:58.954Z,-0.10
2019-03-13T05:39:36.260Z,-0.10
2019-03-13T05:41:12.482Z,-0.10
2019-03-13T05:42:48.548Z,0.00
2019-03-13T05:44:24.614Z,-0.10
2019-03-13T05:46:00.865Z,0.00
2019-03-13T05:47:38.287Z,0.00
2019-03-13T05:49:15.200Z,0.00
2019-03-13T05:50:51.339Z,0.00
2019-03-13T05:52:27.601Z,0.00
2019-03-13T05:54:03.674Z,0.00
2019-03-13T05:55:39.821Z,0.00
2019-03-13T05:57:16.093Z,0.00
2019-03-13T05:58:52.333Z,0.00
2019-03-13T06:00:29.341Z,0.10
2019-03-13T06:02:05.556Z,0.10
2019-03-13T06:03:41.564Z,0.20
2019-03-13T06:05:17.952Z,0.20
2019-03-13T06:06:54.055Z,0.20
2019-03-13T06:08:30.266Z,0.30
2019-03-13T06:10:12.341Z,0.30
2019-03-13T06:11:48.413Z,0.30
2019-03-13T06:13:24.530Z,0.40
2019-03-13T06:15:03.458Z,0.40
2019-03-13T06:16:38.434Z,0.40
2019-03-13T06:18:14.511Z,0.40
2019-03-13T06:19:50.384Z,0.40
2019-03-13T06:21:27.743Z,0.50
2019-03-13T06:23:03.844Z,0.50
2019-03-13T06:24:39.907Z,0.60
2019-03-13T06:26:15.707Z,0.60
2019-03-13T06:27:51.770Z,0.60
2019-03-13T06:29:31.747Z,0.60
2019-03-13T06:31:07.389Z,0.70
2019-03-13T06:32:43.644Z,0.60
2019-03-13T06:34:19.632Z,0.70
2019-03-13T06:35:55.705Z,0.80
2019-03-13T06:37:31.870Z,0.80
2019-03-13T06:39:08.842Z,0.90
2019-03-13T06:40:44.974Z,0.90
2019-03-13T06:42:21.045Z,0.90
2019-03-13T06:43:58.537Z,1.00
2019-03-13T06:45:34.741Z,1.00
2019-03-13T06:47:11.033Z,1.10
2019-03-13T06:48:47.103Z,1.10
2019-03-13T06:50:25.603Z,1.10
2019-03-13T06:52:01.504Z,1.20
2019-03-13T06:53:37.717Z,1.20
2019-03-13T06:55:14.239Z,1.20
2019-03-13T06:56:50.513Z,1.20
2019-03-13T06:58:28.211Z,1.30
2019-03-13T07:00:24.637Z,1.30
2019-03-13T07:02:09.589Z,1.30
2019-03-13T07:03:47.572Z,1.30
2019-03-13T07:05:25.384Z,1.30
2019-03-13T07:07:09.147Z,1.40
2019-03-13T07:08:50.217Z,1.40
2019-03-13T07:10:28.274Z,1.40
2019-03-13T07:12:15.263Z,1.40
2019-03-13T07:13:53.121Z,1.40
2019-03-13T07:15:39.934Z,1.50
2019-03-13T07:17:23.687Z,1.50
2019-03-13T07:19:17.417Z,1.40
2019-03-13T07:20:58.050Z,1.40
2019-03-13T07:22:35.832Z,1.50
2019-03-13T07:24:13.740Z,1.50
2019-03-13T07:25:54.163Z,1.40
2019-03-13T07:27:49.028Z,1.50
2019-03-13T07:29:29.360Z,1.50
2019-03-13T07:31:07.205Z,1.60
2019-03-13T07:32:56.955Z,1.60
2019-03-13T07:34:52.959Z,1.60
2019-03-13T07:36:46.641Z,1.60
2019-03-13T07:38:24.335Z,1.70
2019-03-13T07:40:18.504Z,1.70
2019-03-13T07:41:58.953Z,1.80
2019-03-13T07:43:40.888Z,1.90
2019-03-13T07:45:19.543Z,1.90
2019-03-13T07:47:13.547Z,2.00
2019-03-13T07:48:54.186Z,2.00
2019-03-13T07:50:39.078Z,2.10
2019-03-13T07:52:33.147Z,2.10
2019-03-13T07:54:13.959Z,2.20
2019-03-13T07:56:11.373Z,2.30
2019-03-13T07:58:05.048Z,2.40
2019-03-13T07:59:49.068Z,2.40
2019-03-13T08:01:45.071Z,2.50
2019-03-13T08:03:35.236Z,2.60
2019-03-13T08:05:22.938Z,2.70
2019-03-13T08:07:11.150Z,2.70
2019-03-13T08:09:07.411Z,2.90
2019-03-13T08:10:57.486Z,3.00
2019-03-13T08:12:51.852Z,3.10
2019-03-13T08:14:46.193Z,3.20
2019-03-13T08:16:23.972Z,3.30
2019-03-13T08:18:04.876Z,3.40
2019-03-13T08:19:43.452Z,3.40
2019-03-13T08:21:22.157Z,3.30
2019-03-13T08:23:00.102Z,3.30
2019-03-13T08:24:41.877Z,3.40
2019-03-13T08:26:22.365Z,3.50
2019-03-13T08:28:16.040Z,3.50
2019-03-13T08:29:53.770Z,3.50
2019-03-13T08:31:31.487Z,3.50
2019-03-13T08:33:09.350Z,3.60
2019-03-13T08:34:47.134Z,3.50
2019-03-13T08:36:24.916Z,3.50
2019-03-13T08:38:05.379Z,3.60
2019-03-13T08:39:43.158Z,3.60
2019-03-13T08:41:20.965Z,3.60
2019-03-13T08:42:58.675Z,3.60
2019-03-13T08:44:34.619Z,3.60
2019-03-13T08:46:12.332Z,3.60
2019-03-13T08:48:08.142Z,3.70
2019-03-13T08:49:50.322Z,3.90
2019-03-13T08:51:30.947Z,4.00
2019-03-13T08:53:06.868Z,4.00
2019-03-13T08:55:03.082Z,4.20
2019-03-13T08:56:59.765Z,4.20
2019-03-13T08:58:37.420Z,4.20
2019-03-13T09:00:38.158Z,4.20
2019-03-13T09:02:32.198Z,4.20
2019-03-13T09:04:12.900Z,4.20
2019-03-13T09:05:58.144Z,4.10
2019-03-13T09:07:34.145Z,4.00
2019-03-13T09:09:11.989Z,3.90
2019-03-13T09:11:00.351Z,3.90
2019-03-13T09:12:54.399Z,4.00
2019-03-13T09:14:50.622Z,4.10
2019-03-13T09:16:31.464Z,4.20
2019-03-13T09:18:12.196Z,4.20
2019-03-13T09:20:05.131Z,4.30
2019-03-13T09:21:42.844Z,4.40
2019-03-13T09:23:36.364Z,4.40
2019-03-13T09:25:21.740Z,4.50
2019-03-13T09:26:59.483Z,4.50
2019-03-13T09:28:41.052Z,4.50
2019-03-13T09:30:18.904Z,4.50
2019-03-13T09:32:13.129Z,4.60
2019-03-13T09:33:50.911Z,4.70
2019-03-13T09:35:32.376Z,4.80
2019-03-13T09:37:10.146Z,4.90
2019-03-13T09:38:55.191Z,4.90
2019-03-13T09:40:42.280Z,4.80
2019-03-13T09:42:36.095Z,4.80
2019-03-13T09:44:29.072Z,4.80
2019-03-13T09:46:05.032Z,4.90
2019-03-13T09:47:42.812Z,4.90
2019-03-13T09:49:38.461Z,5.00
2019-03-13T09:51:31.296Z,5.00
2019-03-13T09:53:17.807Z,5.00
2019-03-13T09:54:55.529Z,5.00
2019-03-13T09:56:34.597Z,5.00
2019-03-13T09:58:25.835Z,5.10
2019-03-13T10:00:15.558Z,5.10
2019-03-13T10:01:53.431Z,5.10
2019-03-13T10:03:29.421Z,5.10
2019-03-13T10:05:18.150Z,5.00
2019-03-13T10:06:58.984Z,5.00
2019-03-13T10:08:39.857Z,5.00
2019-03-13T10:10:36.143Z,5.10
2019-03-13T10:12:16.767Z,5.00
2019-03-13T10:13:57.145Z,5.00
2019-03-13T10:15:43.770Z,5.00
2019-03-13T10:17:27.640Z,5.00
2019-03-13T10:19:21.807Z,5.00
2019-03-13T10:21:05.406Z,5.00
2019-03-13T10:22:47.611Z,5.00
2019-03-13T10:24:32.371Z,5.00
2019-03-13T10:26:26.342Z,5.10
2019-03-13T10:28:05.031Z,5.10
2019-03-13T10:29:54.976Z,5.00
2019-03-13T10:31:46.712Z,5.00
2019-03-13T10:33:26.235Z,5.00
2019-03-13T10:35:09.668Z,5.00
2019-03-13T10:36:50.730Z,5.00
2019-03-13T10:38:46.760Z,5.00
2019-03-13T10:40:42.156Z,5.00
2019-03-13T10:42:20.494Z,5.00
2019-03-13T10:44:07.063Z,4.90
2019-03-13T10:45:53.801Z,5.00
2019-03-13T10:47:37.831Z,5.00
2019-03-13T10:49:23.169Z,4.90
2019-03-13T10:50:59.240Z,4.90
2019-03-13T10:52:52.482Z,4.90
2019-03-13T10:54:47.591Z,4.90
2019-03-13T10:56:32.247Z,4.90
2019-03-13T10:58:08.141Z,4.90
2019-03-13T10:59:45.912Z,4.90
2019-03-13T11:01:32.527Z,4.90
2019-03-13T11:03:13.342Z,4.90
2019-03-13T11:04:51.182Z,4.90
2019-03-13T11:06:54.034Z,4.90
2019-03-13T11:08:32.443Z,4.90
2019-03-13T11:10:18.544Z,4.90
2019-03-13T11:12:03.566Z,4.90
2019-03-13T11:13:47.323Z,5.00
2019-03-13T11:15:30.741Z,5.00
2019-03-13T11:17:08.543Z,5.00
2019-03-13T11:18:46.239Z,5.00
2019-03-13T11:20:32.445Z,5.00
2019-03-13T11:22:16.160Z,5.00
2019-03-13T11:24:02.025Z,5.00
2019-03-13T11:25:56.297Z,5.00
2019-03-13T11:27:44.356Z,5.00
2019-03-13T11:29:25.866Z,5.00
2019-03-13T11:31:05.315Z,5.00
2019-03-13T11:32:44.440Z,5.00
2019-03-13T11:34:38.986Z,5.00
2019-03-13T11:36:28.663Z,5.00
2019-03-13T11:38:09.575Z,5.00
2019-03-13T11:39:50.102Z,5.00
2019-03-13T11:41:30.792Z,5.00
2019-03-13T11:43:12.960Z,5.00
2019-03-13T11:44:50.072Z,5.00
2019-03-13T11:46:33.580Z,5.00
2019-03-13T11:48:23.432Z,5.00
2019-03-13T11:50:01.265Z,5.00
2019-03-13T11:51:48.437Z,5.00
2019-03-13T11:53:26.326Z,5.00
2019-03-13T11:55:04.094Z,5.00
2019-03-13T11:56:41.944Z,5.00
2019-03-13T11:58:36.271Z,5.00
2019-03-13T12:00:28.790Z,5.00
2019-03-13T12:02:23.277Z,5.00
2019-03-13T12:04:17.240Z,5.00
2019-03-13T12:05:53.318Z,5.00
2019-03-13T12:07:40.190Z,5.00
2019-03-13T12:09:26.997Z,5.00
2019-03-13T12:11:17.227Z,5.00
2019-03-13T12:12:53.250Z,5.00
2019-03-13T12:14:33.460Z,5.00
2019-03-13T12:16:12.411Z,5.00
2019-03-13T12:17:51.252Z,5.00
2019-03-13T12:19:45.394Z,5.00
2019-03-13T12:21:38.481Z,5.00
2019-03-13T12:23:25.234Z,5.00
2019-03-13T12:25:08.798Z,5.00
2019-03-13T12:27:01.729Z,5.00
2019-03-13T12:28:39.427Z,5.00
2019-03-13T12:30:16.397Z,5.10
2019-03-13T12:31:57.067Z,5.10
2019-03-13T12:33:40.725Z,5.10
2019-03-13T12:35:19.784Z,5.10
2019-03-13T12:37:03.450Z,5.10
2019-03-13T12:38:39.557Z,5.10
2019-03-13T12:40:20.581Z,5.10
2019-03-13T12:42:05.562Z,5.10
2019-03-13T12:43:58.701Z,5.10
2019-03-13T12:45:42.560Z,5.20
2019-03-13T12:47:25.811Z,5.20
2019-03-13T12:49:09.550Z,5.20
2019-03-13T12:50:47.494Z,5.20
2019-03-13T12:52:41.579Z,5.30
2019-03-13T12:54:26.422Z,5.30
2019-03-13T12:56:20.052Z,5.40
2019-03-13T12:57:57.990Z,5.50
2019-03-13T12:59:54.138Z,5.50
2019-03-13T13:01:40.740Z,5.60
2019-03-13T13:03:35.368Z,5.70
2019-03-13T13:05:29.335Z,5.80
2019-03-13T13:07:17.114Z,5.90
2019-03-13T13:08:53.048Z,6.10
2019-03-13T13:10:30.827Z,6.40
2019-03-13T13:12:26.644Z,6.80
2019-03-13T13:14:21.046Z,7.10
2019-03-13T13:16:15.205Z,7.30
2019-03-13T13:18:05.021Z,7.40
2019-03-13T13:19:41.140Z,7.60
2019-03-13T13:21:17.268Z,7.80
2019-03-13T13:22:53.069Z,7.90
2019-03-13T13:24:29.375Z,8.00
2019-03-13T13:26:05.781Z,8.30
2019-03-13T13:27:42.080Z,8.40
2019-03-13T13:29:18.349Z,8.30
2019-03-13T13:30:54.653Z,8.20
2019-03-13T13:32:30.852Z,8.20
2019-03-13T13:34:07.084Z,8.10
2019-03-13T13:35:43.368Z,8.00
2019-03-13T13:37:19.702Z,7.90
2019-03-13T13:39:08.824Z,7.90
2019-03-13T13:40:45.111Z,7.80
2019-03-13T13:42:21.243Z,7.90
2019-03-13T13:43:57.167Z,7.90
2019-03-13T13:45:37.402Z,7.90
2019-03-13T13:47:13.478Z,7.80
2019-03-13T13:48:49.712Z,7.80
2019-03-13T13:50:26.596Z,7.80
2019-03-13T13:52:02.857Z,7.80
2019-03-13T13:53:39.201Z,8.00
2019-03-13T13:55:15.329Z,8.10
2019-03-13T13:56:51.722Z,8.10
2019-03-13T13:58:28.683Z,8.10
2019-03-13T14:00:08.848Z,8.20
2019-03-13T14:01:45.053Z,8.10
2019-03-13T14:03:21.289Z,8.10
2019-03-13T14:04:57.374Z,8.00
2019-03-13T14:06:33.508Z,8.00
2019-03-13T14:08:09.802Z,8.00
2019-03-13T14:09:47.286Z,8.00
2019-03-13T14:11:23.479Z,8.00
2019-03-13T14:12:59.691Z,8.10
2019-03-13T14:14:35.815Z,8.20
2019-03-13T14:16:12.119Z,8.30
2019-03-13T14:17:48.349Z,8.30
2019-03-13T14:19:24.472Z,8.30
2019-03-13T14:21:01.980Z,8.30
2019-03-13T14:22:38.305Z,8.30
2019-03-13T14:24:17.253Z,8.30
2019-03-13T14:25:52.555Z,8.30
2019-03-13T14:27:28.715Z,8.30
2019-03-13T14:29:05.001Z,8.30
2019-03-13T14:30:41.229Z,8.40
2019-03-13T14:32:17.123Z,8.40
2019-03-13T14:33:53.350Z,8.30
2019-03-13T14:35:29.401Z,8.30
2019-03-13T14:37:05.701Z,8.30
2019-03-13T14:38:41.799Z,8.50
2019-03-13T14:40:20.398Z,8.60
2019-03-13T14:41:56.596Z,8.60
2019-03-13T14:43:32.972Z,8.60
2019-03-13T14:45:16.082Z,8.60
2019-03-13T14:46:52.283Z,8.40
2019-03-13T14:48:28.496Z,8.30
2019-03-13T14:50:06.370Z,8.40
2019-03-13T14:51:42.506Z,8.30
2019-03-13T14:53:18.800Z,8.30
2019-03-13T14:54:55.032Z,8.20
2019-03-13T14:56:31.177Z,8.20
2019-03-13T14:58:07.480Z,8.10
2019-03-13T14:59:43.650Z,8.00
2019-03-13T15:01:19.954Z,8.00
2019-03-13T15:02:56.451Z,8.00
2019-03-13T15:04:32.667Z,8.00
2019-03-13T15:06:08.900Z,7.90
2019-03-13T15:07:45.031Z,8.00
2019-03-13T15:09:22.397Z,8.00
2019-03-13T15:10:58.590Z,8.10
2019-03-13T15:12:34.647Z,8.20
2019-03-13T15:14:10.842Z,8.10
2019-03-13T15:15:47.142Z,8.10
2019-03-13T15:17:23.376Z,8.00
2019-03-13T15:18:59.533Z,8.00
2019-03-13T15:20:35.787Z,7.90
2019-03-13T15:22:11.912Z,7.90
2019-03-13T15:23:48.047Z,7.90
2019-03-13T15:25:24.257Z,7.90
2019-03-13T15:27:00.502Z,7.90
2019-03-13T15:28:36.733Z,7.80
2019-03-13T15:30:27.671Z,7.80
2019-03-13T15:32:03.696Z,7.90
2019-03-13T15:33:39.786Z,7.90
2019-03-13T15:35:16.083Z,8.00
2019-03-13T15:36:52.254Z,8.00
2019-03-13T15:38:28.450Z,7.90
2019-03-13T15:40:07.257Z,7.90
2019-03-13T15:41:43.413Z,7.90
2019-03-13T15:43:19.660Z,7.80
2019-03-13T15:44:55.779Z,7.70
2019-03-13T15:46:32.932Z,7.60
2019-03-13T15:48:10.452Z,7.60
2019-03-13T15:49:46.643Z,7.50
2019-03-13T15:51:22.696Z,7.40
2019-03-13T15:52:58.918Z,7.40
2019-03-13T15:54:35.069Z,7.30
2019-03-13T15:56:11.447Z,7.30
2019-03-13T15:57:47.575Z,7.30
2019-03-13T15:59:23.718Z,7.30
2019-03-13T16:00:59.874Z,7.20
2019-03-13T16:02:36.082Z,7.10
2019-03-13T16:04:12.309Z,7.10
2019-03-13T16:05:48.459Z,7.10
2019-03-13T16:07:25.763Z,7.00
2019-03-13T16:09:01.901Z,6.90
2019-03-13T16:10:38.484Z,6.80
2019-03-13T16:12:14.791Z,6.70
2019-03-13T16:13:50.892Z,6.70
2019-03-13T16:15:41.867Z,6.70
2019-03-13T16:17:18.031Z,6.60
2019-03-13T16:18:54.056Z,6.60
2019-03-13T16:20:30.262Z,6.50
2019-03-13T16:22:07.637Z,6.40
2019-03-13T16:23:43.870Z,6.40
2019-03-13T16:25:20.028Z,6.40
2019-03-13T16:26:56.087Z,6.30
2019-03-13T16:28:32.314Z,6.20
2019-03-13T16:30:22.408Z,6.20
2019-03-13T16:31:58.903Z,6.20
2019-03-13T16:33:34.861Z,6.10
2019-03-13T16:35:11.459Z,6.00
2019-03-13T16:36:47.487Z,6.00
2019-03-13T16:38:24.419Z,5.90
2019-03-13T16:40:00.420Z,5.90
2019-03-13T16:41:36.555Z,5.80
2019-03-13T16:43:12.781Z,5.70
2019-03-13T16:44:48.758Z,5.70
2019-03-13T16:46:24.938Z,5.70
2019-03-13T16:48:01.148Z,5.70
2019-03-13T16:49:39.195Z,5.60
2019-03-13T16:51:15.261Z,5.60
2019-03-13T16:52:51.253Z,5.50
2019-03-13T16:54:27.496Z,5.40
2019-03-13T16:56:03.739Z,5.40
2019-03-13T16:57:39.967Z,5.40
2019-03-13T16:59:17.431Z,5.30
2019-03-13T17:00:53.738Z,5.30
2019-03-13T17:02:30.048Z,5.20
2019-03-13T17:04:06.371Z,5.20
2019-03-13T17:05:42.572Z,5.20
2019-03-13T17:07:18.712Z,5.20
2019-03-13T17:08:54.852Z,5.10
2019-03-13T17:10:32.356Z,5.10
2019-03-13T17:12:08.617Z,5.00
2019-03-13T17:13:44.823Z,5.00
2019-03-13T17:15:22.958Z,5.00
2019-03-13T17:16:59.152Z,4.90
2019-03-13T17:18:35.288Z,4.90
2019-03-13T17:20:18.406Z,4.80
2019-03-13T17:21:54.715Z,4.80
2019-03-13T17:23:30.996Z,4.70
2019-03-13T17:25:11.890Z,4.60
2019-03-13T17:26:48.104Z,4.60
2019-03-13T17:28:25.614Z,4.60
2019-03-13T17:30:01.867Z,4.50
2019-03-13T17:31:38.008Z,4.50
2019-03-13T17:33:14.311Z,4.40
2019-03-13T17:34:50.450Z,4.40
2019-03-13T17:36:26.633Z,4.40
2019-03-13T17:38:02.705Z,4.40
2019-03-13T17:39:38.839Z,4.30
2019-03-13T17:41:15.147Z,4.30
2019-03-13T17:42:51.358Z,4.30
2019-03-13T17:44:27.492Z,4.20
2019-03-13T17:46:06.890Z,4.20
2019-03-13T17:47:41.686Z,4.10
2019-03-13T17:49:17.907Z,4.10
2019-03-13T17:50:53.963Z,4.00
2019-03-13T17:52:30.136Z,4.00
2019-03-13T17:54:06.465Z,4.00
2019-03-13T17:55:42.696Z,3.90
2019-03-13T17:57:18.836Z,3.90
2019-03-13T17:58:54.977Z,3.90
2019-03-13T18:00:36.306Z,3.90
2019-03-13T18:02:12.165Z,3.80
2019-03-13T18:03:49.968Z,3.70
2019-03-13T18:05:26.430Z,3.70
2019-03-13T18:07:02.646Z,3.70
2019-03-13T18:08:38.878Z,3.70
2019-03-13T18:10:20.397Z,3.60
2019-03-13T18:11:56.563Z,3.60
2019-03-13T18:13:32.730Z,3.60
2019-03-13T18:15:12.327Z,3.50
2019-03-13T18:16:48.382Z,3.60
2019-03-13T18:18:26.000Z,3.50
2019-03-13T18:20:02.169Z,3.50
2019-03-13T18:21:38.372Z,3.50
2019-03-13T18:23:14.535Z,3.50
2019-03-13T18:24:50.594Z,3.40
2019-03-13T18:26:26.927Z,3.40
2019-03-13T18:28:03.728Z,3.40
2019-03-13T18:29:39.907Z,3.40
2019-03-13T18:31:16.221Z,3.40
2019-03-13T18:32:53.682Z,3.40
2019-03-13T18:34:29.912Z,3.40
2019-03-13T18:36:06.242Z,3.40
2019-03-13T18:37:42.463Z,3.40
2019-03-13T18:39:18.610Z,3.30
2019-03-13T18:40:54.842Z,3.30
2019-03-13T18:42:31.047Z,3.40
2019-03-13T18:44:07.370Z,3.30
2019-03-13T18:45:43.538Z,3.30
2019-03-13T18:47:19.845Z,3.30
2019-03-13T18:48:55.963Z,3.20
2019-03-13T18:50:32.262Z,3.20
2019-03-13T18:52:08.574Z,3.20
2019-03-13T18:53:44.800Z,3.20
2019-03-13T18:55:26.889Z,3.20
2019-03-13T18:57:03.118Z,3.20
2019-03-13T18:58:40.387Z,3.10
2019-03-13T19:00:26.060Z,3.10
2019-03-13T19:02:02.213Z,3.00
2019-03-13T19:03:38.277Z,3.00
2019-03-13T19:05:15.611Z,3.00
2019-03-13T19:06:51.841Z,3.00
2019-03-13T19:08:27.999Z,2.90
2019-03-13T19:10:06.809Z,2.90
2019-03-13T19:11:43.039Z,2.90
2019-03-13T19:13:19.281Z,2.80
2019-03-13T19:14:55.404Z,2.80
2019-03-13T19:16:31.584Z,2.70
2019-03-13T19:18:07.818Z,2.70
2019-03-13T19:19:43.971Z,2.70
2019-03-13T19:21:20.101Z,2.70
2019-03-13T19:22:56.421Z,2.70
2019-03-13T19:24:32.656Z,2.70
2019-03-13T19:26:08.897Z,2.70
2019-03-13T19:27:45.104Z,2.70
2019-03-13T19:29:21.182Z,2.60
2019-03-13T19:30:57.290Z,2.60
2019-03-13T19:32:33.427Z,2.60
2019-03-13T19:34:09.500Z,2.60
2019-03-13T19:35:45.697Z,2.60
2019-03-13T19:37:21.780Z,2.70
2019-03-13T19:38:57.915Z,2.60
2019-03-13T19:40:34.223Z,2.60
2019-03-13T19:42:10.385Z,2.60
2019-03-13T19:43:47.751Z,2.50
2019-03-13T19:45:34.215Z,2.60
2019-03-13T19:47:10.351Z,2.50
2019-03-13T19:48:46.597Z,2.50
2019-03-13T19:50:22.740Z,2.50
2019-03-13T19:51:58.886Z,2.50
2019-03-13T19:53:35.033Z,2.50
2019-03-13T19:55:14.340Z,2.50
2019-03-13T19:56:50.764Z,2.60
2019-03-13T19:58:26.872Z,2.60
2019-03-13T20:00:03.432Z,2.60
2019-03-13T20:01:39.740Z,2.60
2019-03-13T20:03:19.976Z,2.70
2019-03-13T20:04:56.053Z,2.70
2019-03-13T20:06:41.761Z,2.70
2019-03-13T20:08:09.917Z,2.70
2019-03-13T20:09:46.168Z,2.70
2019-03-13T20:11:22.698Z,2.70
2019-03-13T20:12:59.179Z,2.70
2019-03-13T20:14:35.413Z,2.70
2019-03-13T20:16:11.723Z,2.70
2019-03-13T20:17:47.992Z,2.70
2019-03-13T20:19:24.229Z,2.70
2019-03-13T20:21:00.415Z,2.70
2019-03-13T20:22:38.070Z,2.70
2019-03-13T20:24:14.207Z,2.60
2019-03-13T20:25:50.417Z,2.60
2019-03-13T20:27:26.783Z,2.60
2019-03-13T20:29:03.205Z,2.60
2019-03-13T20:30:39.477Z,2.60
2019-03-13T20:32:15.337Z,2.60
2019-03-13T20:33:51.409Z,2.60
2019-03-13T20:35:27.658Z,2.60
2019-03-13T20:37:03.883Z,2.60
2019-03-13T20:38:40.010Z,2.60
2019-03-13T20:40:25.343Z,2.60
2019-03-13T20:42:01.660Z,2.60
2019-03-13T20:43:37.669Z,2.50
2019-03-13T20:45:17.890Z,2.50
2019-03-13T20:46:54.067Z,2.60
2019-03-13T20:48:30.366Z,2.60
2019-03-13T20:50:09.112Z,2.50
2019-03-13T20:51:45.349Z,2.50
2019-03-13T20:53:21.568Z,2.50
2019-03-13T20:54:57.663Z,2.50
2019-03-13T20:56:33.892Z,2.40
2019-03-13T20:58:11.328Z,2.40
2019-03-13T20:59:47.545Z,2.50
2019-03-13T21:01:23.896Z,2.50
2019-03-13T21:03:00.323Z,2.50
2019-03-13T21:04:36.552Z,2.50
2019-03-13T21:06:12.791Z,2.50
2019-03-13T21:07:48.925Z,2.50
2019-03-13T21:09:25.138Z,2.50
2019-03-13T21:11:01.598Z,2.50
2019-03-13T21:12:37.690Z,2.50
2019-03-13T21:14:13.826Z,2.60
2019-03-13T21:15:49.966Z,2.50
2019-03-13T21:17:26.132Z,2.60
2019-03-13T21:19:03.494Z,2.60
2019-03-13T21:20:39.796Z,2.60
2019-03-13T21:22:15.878Z,2.60
2019-03-13T21:23:51.873Z,2.60
2019-03-13T21:25:28.520Z,2.60
2019-03-13T21:27:04.777Z,2.60
2019-03-13T21:28:41.677Z,2.60
2019-03-13T21:30:30.017Z,2.60
2019-03-13T21:32:06.232Z,2.60
2019-03-13T21:33:42.364Z,2.60
2019-03-13T21:35:18.765Z,2.60
2019-03-13T21:36:54.965Z,2.60
2019-03-13T21:38:31.283Z,2.70
2019-03-13T21:40:12.082Z,2.70
2019-03-13T21:41:50.058Z,2.60
2019-03-13T21:43:26.142Z,2.70
2019-03-13T21:45:02.348Z,2.70
2019-03-13T21:46:38.340Z,2.70
2019-03-13T21:48:14.646Z,2.70